X  Close Metar Aviation Weather Data     EHRD Rotterdam The Hague Airport
Temperature
1°C Temperature
1°C Dewpoint
100% Humidity



Wind
3 KM/H
2 MPH
1 M/S
2 KTS



Calm
North
Current Conditions

Fog Fog
Pressure 1027.92 (hPa) - 30.35 (inHg)
Visibility 0.5 (mile) - 0.8 (km)
Airport
Airport-code EHRD

Location: Rotterdam The Hague Airport
Distance: 16 (km)

Metar:
EHRD 010725Z AUTO VRB02KT 0750 R06/1700N FG FEW015 BKN047 01/01 Q1028 BECMG 3000 BR

Time: 01-12-2022 08:25 CET